Time;durP1;ratioP1;P1;durP2;ratioP2;P2;SDS_P1;SDS_P2;PMS_P1;PMS_P2;Temp;Humidity;BMP_temperature;BMP_pressure;BME280_temperature;BME280_humidity;BME280_pressure;Samples;Min_cycle;Max_cycle;Signal;HPM_P1;HPM_P2
2021/03/02 00:02:21;;;;;;;1.98;1.87;;;;;;;1.10;85.89;102768.81;4393157;32;20080;-74
2021/03/02 00:04:47;;;;;;;3.47;3.17;;;;;;;0.99;85.82;102745.34;4337721;32;20436;-75
2021/03/02 00:07:15;;;;;;;2.10;2.00;;;;;;;1.07;85.51;102764.47;4327338;32;20078;-74
2021/03/02 00:09:41;;;;;;;2.00;1.90;;;;;;;1.08;85.06;102762.75;4365933;32;20066;-75
2021/03/02 00:12:07;;;;;;;2.20;2.10;;;;;;;1.06;85.58;102762.72;4308083;32;20580;-74
2021/03/02 00:14:34;;;;;;;2.10;2.00;;;;;;;0.55;84.80;102684.13;4329350;32;20077;-74
2021/03/02 00:17:01;;;;;;;2.47;2.37;;;;;;;1.02;85.56;102766.06;4313074;32;20093;-75
2021/03/02 00:19:39;;;;;;;2.20;2.10;;;;;;;0.99;85.54;102761.72;4319126;32;20087;-74
2021/03/02 00:22:16;;;;;;;3.28;3.08;;;;;;;0.96;85.28;102766.84;4321659;32;20086;-74
2021/03/02 00:24:42;;;;;;;2.00;1.90;;;;;;;0.93;85.93;102765.91;4349525;32;20065;-74
2021/03/02 00:27:07;;;;;;;2.03;1.92;;;;;;;0.13;84.98;102638.44;4320598;32;20090;-74
2021/03/02 00:29:32;;;;;;;2.47;2.35;;;;;;;0.73;85.64;102749.97;4313864;32;20651;-75
2021/03/02 00:31:58;;;;;;;2.15;2.05;;;;;;;0.80;85.87;102769.91;4312392;32;20077;-74
2021/03/02 00:34:23;;;;;;;2.05;1.95;;;;;;;0.66;85.46;102748.09;4309944;32;20086;-75
2021/03/02 00:36:48;;;;;;;2.17;2.08;;;;;;;0.73;85.34;102761.16;4297760;32;20758;-75
2021/03/02 00:39:14;;;;;;;2.03;1.92;;;;;;;0.72;85.03;102763.72;4314276;32;20539;-75
2021/03/02 00:41:39;;;;;;;2.20;2.10;;;;;;;0.70;85.19;102762.81;4313354;32;20071;-74
2021/03/02 00:44:05;;;;;;;2.80;2.70;;;;;;;0.69;85.64;102759.38;4313768;32;20070;-74
2021/03/02 00:46:30;;;;;;;2.08;1.98;;;;;;;0.33;85.50;102708.63;4299791;32;20059;-74
2021/03/02 00:48:55;;;;;;;2.20;2.10;;;;;;;0.48;85.26;102722.72;4301270;32;20090;-74
2021/03/02 00:51:21;;;;;;;2.20;2.10;;;;;;;0.60;84.92;102753.97;4364024;32;20086;-75
2021/03/02 00:53:46;;;;;;;2.62;2.53;;;;;;;-0.03;84.81;102651.84;4312070;32;20412;-74
2021/03/02 00:56:11;;;;;;;2.55;2.45;;;;;;;0.43;85.24;102730.38;4301446;32;20085;-75
2021/03/02 00:58:37;;;;;;;2.08;1.98;;;;;;;0.26;85.20;102714.50;4302074;32;20067;-74
2021/03/02 01:01:02;;;;;;;1.90;1.80;;;;;;;0.50;85.46;102767.53;4331872;32;20632;-74
2021/03/02 01:03:27;;;;;;;2.20;2.10;;;;;;;0.57;85.40;102762.53;4371585;32;20083;-75
2021/03/02 01:05:53;;;;;;;2.00;1.90;;;;;;;0.43;85.22;102742.41;4312619;32;20082;-75
2021/03/02 01:08:18;;;;;;;2.00;1.90;;;;;;;0.56;85.34;102771.16;4324938;32;20078;-75
2021/03/02 01:10:43;;;;;;;2.00;1.90;;;;;;;0.59;85.35;102767.75;4314862;32;20059;-75
2021/03/02 01:13:09;;;;;;;2.00;1.90;;;;;;;0.57;85.65;102767.72;4301834;32;20137;-75
2021/03/02 01:15:35;;;;;;;1.83;1.83;;;;;;;0.12;85.72;102687.47;4318432;32;20071;-75
2021/03/02 01:18:00;;;;;;;2.10;2.00;;;;;;;0.56;85.67;102765.97;4310347;32;20091;-74
2021/03/02 01:20:25;;;;;;;2.00;1.90;;;;;;;0.49;85.54;102753.75;4317951;32;20091;-74
2021/03/02 01:22:51;;;;;;;2.00;1.90;;;;;;;0.51;85.80;102748.63;4375299;32;20083;-74
2021/03/02 01:25:16;;;;;;;2.03;1.92;;;;;;;0.59;85.74;102766.03;4359849;32;20419;-73
2021/03/02 01:27:41;;;;;;;2.00;1.90;;;;;;;0.49;85.48;102739.97;4329358;32;20074;-73
2021/03/02 01:30:08;;;;;;;1.80;1.80;;;;;;;0.59;85.48;102765.16;4313243;32;20066;-74
2021/03/02 01:32:34;;;;;;;2.10;2.00;;;;;;;0.57;85.59;102759.97;4379619;32;20692;-76
2021/03/02 01:34:59;;;;;;;2.10;2.00;;;;;;;0.56;86.07;102758.22;4317473;32;20082;-74
2021/03/02 01:37:24;;;;;;;2.10;2.00;;;;;;;0.47;85.91;102744.22;4371869;32;20075;-74
2021/03/02 01:39:50;;;;;;;2.60;2.50;;;;;;;0.42;85.92;102733.78;4314902;32;20714;-74
2021/03/02 01:42:15;;;;;;;2.05;1.95;;;;;;;0.34;85.73;102737.91;4373073;32;20498;-74
2021/03/02 01:44:40;;;;;;;1.80;1.80;;;;;;;0.30;85.65;102718.00;4309365;32;20326;-74
2021/03/02 01:47:06;;;;;;;2.75;2.60;;;;;;;0.35;86.46;102727.59;4372809;32;20098;-75
2021/03/02 01:49:31;;;;;;;2.00;1.90;;;;;;;0.46;85.91;102765.72;4307722;32;20064;-74
2021/03/02 01:51:56;;;;;;;2.10;2.00;;;;;;;0.45;86.45;102748.50;4306649;32;20822;-74
2021/03/02 01:54:22;;;;;;;1.80;1.80;;;;;;;0.26;85.80;102722.25;4345741;32;20091;-74
2021/03/02 01:56:47;;;;;;;1.80;1.80;;;;;;;0.42;86.09;102745.81;4300862;32;20589;-74
2021/03/02 01:59:13;;;;;;;2.17;2.08;;;;;;;0.36;85.90;102747.44;4325786;32;20077;-74
2021/03/02 02:01:38;;;;;;;2.00;1.90;;;;;;;0.32;86.53;102737.88;4344980;32;20114;-74
2021/03/02 02:04:08;;;;;;;2.00;1.90;;;;;;;0.27;85.43;102752.37;4348271;32;20728;-73
2021/03/02 02:06:55;;;;;;;1.87;1.80;;;;;;;0.23;86.33;102740.25;4327825;32;20079;-74
2021/03/02 02:09:36;;;;;;;2.00;1.90;;;;;;;-0.07;85.49;102704.25;4355874;27;20095;-74
2021/03/02 02:12:22;;;;;;;1.70;1.70;;;;;;;0.14;85.55;102745.16;4388258;32;20131;-75
2021/03/02 02:15:12;;;;;;;1.67;1.67;;;;;;;0.09;86.44;102742.50;4405509;32;20069;-74
2021/03/02 02:17:53;;;;;;;1.80;1.80;;;;;;;-0.08;85.82;102721.44;4400194;32;20079;-74
2021/03/02 02:20:30;;;;;;;2.12;2.03;;;;;;;-0.18;86.19;102709.16;4379357;32;20065;-75
2021/03/02 02:23:33;;;;;;;1.70;1.70;;;;;;;-0.03;85.84;102734.44;4403641;32;20066;-74
2021/03/02 02:26:21;;;;;;;5.47;2.35;;;;;;;-1.16;86.56;102555.41;4393862;32;20077;-74
2021/03/02 02:28:47;;;;;;;1.80;1.80;;;;;;;-0.11;85.99;102736.84;4383726;32;20972;-75
2021/03/02 02:31:12;;;;;;;1.80;1.80;;;;;;;-0.16;86.23;102732.38;4359014;32;20073;-74
2021/03/02 02:33:39;;;;;;;2.08;1.98;;;;;;;-0.20;86.32;102734.03;4367570;32;20065;-73
2021/03/02 02:36:06;;;;;;;1.80;1.80;;;;;;;-0.34;85.96;102714.75;4380033;32;20062;-74
2021/03/02 02:38:32;;;;;;;1.70;1.70;;;;;;;-0.27;86.30;102739.88;4362738;32;20135;-73
2021/03/02 02:40:57;;;;;;;2.10;2.00;;;;;;;-0.30;86.02;102735.50;4366972;32;20073;-75
2021/03/02 02:43:23;;;;;;;1.70;1.70;;;;;;;-0.43;86.45;102712.81;4363973;32;20072;-73
2021/03/02 02:45:49;;;;;;;1.80;1.80;;;;;;;-0.32;86.32;102736.28;4364142;32;20081;-74
2021/03/02 02:48:14;;;;;;;2.00;1.90;;;;;;;-0.65;86.42;102675.28;4366809;32;20077;-74
2021/03/02 02:50:39;;;;;;;1.60;1.60;;;;;;;-0.58;86.50;102695.25;4363505;32;20069;-73
2021/03/02 02:53:05;;;;;;;1.67;1.67;;;;;;;-0.28;86.65;102743.28;4365899;32;20057;-74
2021/03/02 02:55:34;;;;;;;1.80;1.80;;;;;;;-0.25;86.20;102733.91;4351801;32;20070;-74
2021/03/02 02:57:59;;;;;;;1.70;1.70;;;;;;;-0.25;86.95;102740.78;4366709;32;20754;-75
2021/03/02 03:00:25;;;;;;;1.73;1.73;;;;;;;-0.63;86.99;102676.19;4368824;32;20133;-73
2021/03/02 03:02:51;;;;;;;1.73;1.73;;;;;;;-0.64;86.29;102674.47;4368622;32;20934;-75
2021/03/02 03:05:21;;;;;;;1.80;1.80;;;;;;;-0.37;86.85;102725.00;4383566;32;20599;-74
2021/03/02 03:07:48;;;;;;;1.75;1.75;;;;;;;-1.02;87.15;102618.47;4386506;32;20085;-74
2021/03/02 03:10:13;;;;;;;1.70;1.70;;;;;;;-0.35;87.05;102728.47;4406330;32;20396;-75
2021/03/02 03:12:41;;;;;;;1.60;1.60;;;;;;;-0.55;87.02;102695.31;4396750;32;20693;-75
2021/03/02 03:15:08;;;;;;;3.40;3.20;;;;;;;-0.83;86.33;102649.88;4382907;32;20135;-74
2021/03/02 03:17:37;;;;;;;1.70;1.70;;;;;;;-0.35;86.41;102731.06;4393852;32;20070;-74
2021/03/02 03:20:04;;;;;;;1.60;1.60;;;;;;;-0.41;86.87;102732.63;4396949;32;20061;-74
2021/03/02 03:22:29;;;;;;;1.90;1.87;;;;;;;-0.42;87.10;102736.06;4403293;32;20488;-74
2021/03/02 03:24:56;;;;;;;1.80;1.80;;;;;;;-0.79;86.75;102686.94;4387859;32;20090;-74
2021/03/02 03:27:21;;;;;;;1.80;1.80;;;;;;;-0.45;86.56;102737.69;4381228;32;20082;-74
2021/03/02 03:29:46;;;;;;;1.80;1.80;;;;;;;-0.47;86.65;102740.22;4379813;32;20069;-74
2021/03/02 03:32:12;;;;;;;2.20;2.10;;;;;;;-0.66;87.10;102712.19;4385851;32;20056;-74
2021/03/02 03:34:39;;;;;;;1.65;1.65;;;;;;;-0.48;86.80;102735.00;4384206;32;20080;-75
2021/03/02 03:37:04;;;;;;;1.70;1.70;;;;;;;-0.49;86.68;102743.59;4383277;32;20097;-75
2021/03/02 03:39:29;;;;;;;1.70;1.70;;;;;;;-0.49;86.73;102743.59;4384227;32;20101;-74
2021/03/02 03:41:55;;;;;;;2.37;2.17;;;;;;;-1.13;87.06;102632.75;4382322;32;20073;-75
2021/03/02 03:44:20;;;;;;;2.00;1.90;;;;;;;-0.53;86.74;102740.06;4382273;32;20061;-74
2021/03/02 03:46:45;;;;;;;2.08;1.98;;;;;;;-0.55;87.20;102738.28;4382248;32;20083;-74
2021/03/02 03:49:11;;;;;;;1.70;1.70;;;;;;;-0.57;87.26;102733.06;4378022;32;20927;-74
2021/03/02 03:51:36;;;;;;;1.77;1.77;;;;;;;-0.59;87.08;102737.31;4391340;32;20495;-73
2021/03/02 03:54:02;;;;;;;2.35;2.25;;;;;;;-0.92;86.73;102690.87;4400662;32;20126;-74
2021/03/02 03:56:27;;;;;;;2.00;1.90;;;;;;;-0.67;87.00;102734.53;4396292;32;20065;-74
2021/03/02 03:58:52;;;;;;;1.70;1.70;;;;;;;-0.78;86.70;102715.34;4399554;32;20061;-74
2021/03/02 04:01:18;;;;;;;1.60;1.60;;;;;;;-1.32;86.75;102631.41;4398654;32;20085;-74
2021/03/02 04:03:43;;;;;;;1.70;1.70;;;;;;;-1.06;87.05;102667.31;4391531;32;20638;-74
2021/03/02 04:06:09;;;;;;;2.00;1.90;;;;;;;-0.85;86.52;102703.09;4396240;32;20084;-74
2021/03/02 04:08:34;;;;;;;1.80;1.80;;;;;;;-0.77;87.03;102713.63;4398197;32;20673;-74
2021/03/02 04:11:01;;;;;;;1.92;1.90;;;;;;;-0.69;86.66;102738.78;4396746;32;20098;-77
2021/03/02 04:13:27;;;;;;;2.67;2.58;;;;;;;-0.71;87.07;102734.41;4395074;32;20135;-74
2021/03/02 04:15:52;;;;;;;1.80;1.80;;;;;;;-0.66;86.98;102745.72;4403514;32;20346;-74
2021/03/02 04:18:18;;;;;;;1.77;1.77;;;;;;;-1.34;86.67;102629.59;4380979;32;20100;-73
2021/03/02 04:20:44;;;;;;;1.70;1.70;;;;;;;-0.70;86.63;102741.31;4380628;32;20191;-74
2021/03/02 04:23:09;;;;;;;1.73;1.73;;;;;;;-1.96;86.71;102534.31;4396634;32;20061;-74
2021/03/02 04:25:35;;;;;;;1.85;1.85;;;;;;;-0.89;87.00;102721.87;4396923;32;20081;-74
2021/03/02 04:28:00;;;;;;;1.60;1.60;;;;;;;-0.89;87.23;102721.87;4396263;32;20080;-74
2021/03/02 04:30:26;;;;;;;2.05;1.95;;;;;;;-0.76;86.62;102744.59;4381280;32;20081;-74
2021/03/02 04:32:52;;;;;;;1.87;1.80;;;;;;;-0.95;86.54;102717.44;4380079;32;20112;-73
2021/03/02 04:35:17;;;;;;;1.80;1.80;;;;;;;-0.81;86.66;102733.28;4399132;32;20087;-74
2021/03/02 04:37:42;;;;;;;1.60;1.60;;;;;;;-0.96;86.76;102718.28;4395078;32;20494;-74
2021/03/02 04:40:09;;;;;;;2.10;2.00;;;;;;;-0.81;87.01;102735.88;4395114;32;20073;-74
2021/03/02 04:42:34;;;;;;;1.60;1.60;;;;;;;-1.54;86.64;102606.75;4398050;32;20081;-74
2021/03/02 04:44:59;;;;;;;1.95;1.90;;;;;;;-0.77;86.98;102740.28;4406596;32;20088;-75
2021/03/02 04:47:25;;;;;;;1.60;1.60;;;;;;;-0.87;86.90;102736.56;4397397;32;20145;-74
2021/03/02 04:49:50;;;;;;;1.70;1.70;;;;;;;-0.76;87.00;102743.72;4406624;32;20089;-73
2021/03/02 04:52:16;;;;;;;1.80;1.80;;;;;;;-0.88;86.88;102729.69;4397386;32;20068;-74
2021/03/02 04:54:42;;;;;;;1.80;1.80;;;;;;;-0.75;86.88;102751.50;4393419;32;20069;-74
2021/03/02 04:57:07;;;;;;;3.00;2.80;;;;;;;-0.78;87.05;102741.13;4381566;32;20092;-76
2021/03/02 04:59:32;;;;;;;1.90;1.85;;;;;;;-0.71;87.00;102757.62;4384043;32;20412;-73
2021/03/02 05:01:58;;;;;;;1.60;1.60;;;;;;;-0.94;87.35;102713.12;4393425;32;20092;-74
2021/03/02 05:04:23;;;;;;;1.70;1.70;;;;;;;-0.68;87.07;102744.78;4386542;32;20274;-73
2021/03/02 05:06:48;;;;;;;1.70;1.70;;;;;;;-0.84;87.61;102720.31;4381197;32;20082;-74
2021/03/02 05:09:14;;;;;;;1.70;1.70;;;;;;;-0.89;87.81;102696.97;4388720;32;20584;-74
2021/03/02 05:11:39;;;;;;;1.70;1.70;;;;;;;-0.60;87.16;102738.16;4404380;32;20174;-75
2021/03/02 05:14:04;;;;;;;1.60;1.60;;;;;;;-0.69;87.83;102722.44;4394818;32;20455;-74
2021/03/02 05:16:30;;;;;;;1.70;1.70;;;;;;;-0.68;87.53;102706.12;4397372;32;20095;-74
2021/03/02 05:18:55;;;;;;;1.70;1.70;;;;;;;-0.49;87.99;102734.16;4397149;32;20076;-74
2021/03/02 05:21:20;;;;;;;2.42;2.22;;;;;;;-1.64;87.56;102543.81;4396020;32;20089;-74
2021/03/02 05:23:46;;;;;;;1.70;1.70;;;;;;;-0.57;87.73;102719.31;4403864;32;20084;-74
2021/03/02 05:26:11;;;;;;;1.80;1.80;;;;;;;-0.46;87.96;102757.47;4399920;32;20626;-74
2021/03/02 05:28:37;;;;;;;1.80;1.80;;;;;;;-0.42;88.41;102743.81;4395820;32;20100;-75
2021/03/02 05:31:02;;;;;;;1.70;1.70;;;;;;;-0.37;88.33;102732.72;4382274;32;20162;-74
2021/03/02 05:33:27;;;;;;;1.70;1.70;;;;;;;-0.35;88.33;102738.81;4380084;32;20879;-74
2021/03/02 05:35:53;;;;;;;1.80;1.80;;;;;;;-0.91;88.13;102647.09;4382763;32;20069;-74
2021/03/02 05:38:18;;;;;;;2.33;2.22;;;;;;;-0.58;88.41;102699.50;4381734;32;20089;-74
2021/03/02 05:40:43;;;;;;;2.30;2.20;;;;;;;-0.37;88.63;102756.81;4381619;32;20066;-73
2021/03/02 05:43:09;;;;;;;1.70;1.70;;;;;;;-0.38;87.73;102744.78;4379358;32;20096;-74
2021/03/02 05:45:35;;;;;;;1.70;1.70;;;;;;;-1.03;87.84;102623.59;4378694;32;20539;-74
2021/03/02 05:48:00;;;;;;;1.70;1.70;;;;;;;-0.59;87.98;102719.28;4383155;32;20092;-74
2021/03/02 05:50:26;;;;;;;1.80;1.80;;;;;;;-0.42;87.91;102741.22;4383693;32;20099;-75
2021/03/02 05:52:55;;;;;;;1.92;1.90;;;;;;;-0.42;88.32;102738.66;4384222;32;20081;-75
2021/03/02 05:55:20;;;;;;;1.70;1.70;;;;;;;-0.41;88.45;102740.38;4379801;32;20516;-73
2021/03/02 05:57:46;;;;;;;1.92;1.85;;;;;;;-0.42;88.14;102740.38;4384728;32;20211;-74
2021/03/02 06:00:11;;;;;;;1.73;1.73;;;;;;;-0.46;87.82;102739.41;4379259;32;20080;-73
2021/03/02 06:02:37;;;;;;;1.60;1.60;;;;;;;-0.47;87.94;102739.34;4403891;32;20061;-74
2021/03/02 06:05:02;;;;;;;1.80;1.80;;;;;;;-0.62;88.04;102714.03;4383998;32;20101;-74
2021/03/02 06:07:28;;;;;;;1.70;1.70;;;;;;;-0.57;87.75;102735.66;4383351;32;20080;-73
2021/03/02 06:09:53;;;;;;;1.60;1.60;;;;;;;-0.75;87.68;102719.69;4381406;32;20580;-73
2021/03/02 06:12:18;;;;;;;1.65;1.65;;;;;;;-1.00;87.84;102675.22;4382611;32;20081;-74
2021/03/02 06:14:44;;;;;;;1.50;1.50;;;;;;;-0.66;87.91;102732.81;4378330;32;20452;-74
2021/03/02 06:17:09;;;;;;;1.70;1.70;;;;;;;-0.67;88.32;102738.81;4377328;32;20583;-74
2021/03/02 06:19:36;;;;;;;1.80;1.80;;;;;;;-0.66;88.79;102735.41;4402573;32;20136;-74
2021/03/02 06:22:01;;;;;;;1.60;1.60;;;;;;;-0.62;88.77;102737.25;4379983;32;20450;-71
2021/03/02 06:24:37;;;;;;;1.70;1.70;;;;;;;-0.61;88.39;102736.41;4404779;32;20346;-70
2021/03/02 06:27:12;;;;;;;1.60;1.60;;;;;;;-0.62;88.25;102732.97;4388525;32;20092;-71
2021/03/02 06:29:39;;;;;;;1.70;1.70;;;;;;;-0.56;89.13;102737.41;4392572;32;20065;-71
2021/03/02 06:32:04;;;;;;;1.77;1.77;;;;;;;-0.46;88.68;102744.56;4393728;32;20772;-71
2021/03/02 06:34:30;;;;;;;1.75;1.75;;;;;;;-0.39;89.10;102737.84;4403769;32;20139;-72
2021/03/02 06:36:55;;;;;;;2.47;2.37;;;;;;;-0.32;89.06;102744.94;4403293;32;20072;-70
2021/03/02 06:39:31;;;;;;;1.60;1.60;;;;;;;-0.28;89.16;102745.84;4385543;32;20364;-72
2021/03/02 06:42:10;;;;;;;1.60;1.60;;;;;;;-0.18;88.55;102740.12;4392833;32;20070;-70
2021/03/02 06:44:36;;;;;;;1.95;1.90;;;;;;;-0.10;88.36;102745.44;4367391;32;20192;-70
2021/03/02 06:47:02;;;;;;;1.70;1.70;;;;;;;-0.06;88.99;102745.59;4378345;32;20065;-71
2021/03/02 06:49:38;;;;;;;1.70;1.70;;;;;;;0.03;88.97;102744.06;4380138;32;20217;-70
2021/03/02 06:52:13;;;;;;;2.28;2.17;;;;;;;0.12;89.06;102752.91;4389323;32;20510;-70
2021/03/02 06:54:38;;;;;;;2.65;2.55;;;;;;;0.31;88.91;102745.59;4387747;32;20069;-71
2021/03/02 06:57:04;;;;;;;2.00;1.90;;;;;;;0.48;88.48;102756.28;4373437;32;20094;-69
2021/03/02 06:59:29;;;;;;;1.73;1.73;;;;;;;0.61;88.58;102752.28;4390671;32;20461;-69
2021/03/02 07:01:54;;;;;;;1.80;1.80;;;;;;;0.70;88.50;102753.38;4375293;32;20069;-70
2021/03/02 07:04:21;;;;;;;1.73;1.73;;;;;;;0.78;87.96;102759.56;4369632;32;20986;-69
2021/03/02 07:06:56;;;;;;;2.50;2.40;;;;;;;0.75;88.36;102720.72;4377204;32;20082;-70
2021/03/02 07:09:22;;;;;;;1.80;1.80;;;;;;;1.18;87.62;102752.66;4373594;32;20081;-71
2021/03/02 07:11:47;;;;;;;1.75;1.75;;;;;;;1.47;87.70;102752.31;4365117;32;20134;-70
2021/03/02 07:14:13;;;;;;;1.80;1.80;;;;;;;1.70;86.72;102760.50;4376175;32;20089;-70
2021/03/02 07:16:39;;;;;;;2.35;2.25;;;;;;;1.87;86.12;102753.03;4385461;32;20077;-70
2021/03/02 07:19:05;;;;;;;1.80;1.80;;;;;;;2.15;85.00;102750.91;4380188;32;20077;-70
2021/03/02 07:21:37;;;;;;;2.40;2.30;;;;;;;2.22;83.49;102739.78;4380760;32;20579;-71
2021/03/02 07:24:09;;;;;;;1.98;1.90;;;;;;;2.50;83.66;102753.16;4382166;32;20077;-71
2021/03/02 07:26:36;;;;;;;1.70;1.70;;;;;;;2.71;82.29;102747.41;4377015;32;20104;-69
2021/03/02 07:29:02;;;;;;;1.80;1.80;;;;;;;2.78;82.41;102744.03;4383534;32;20745;-69
2021/03/02 07:31:27;;;;;;;2.47;2.37;;;;;;;2.76;81.16;102707.69;4380644;32;20187;-69
2021/03/02 07:33:53;;;;;;;2.03;1.92;;;;;;;3.07;80.83;102749.59;4368601;32;20065;-70
2021/03/02 07:36:18;;;;;;;2.00;1.90;;;;;;;3.19;80.30;102748.87;4384551;32;20477;-71
2021/03/02 07:38:43;;;;;;;2.10;2.00;;;;;;;3.27;79.35;102730.75;4369958;32;20719;-70
2021/03/02 07:41:09;;;;;;;2.20;2.10;;;;;;;3.22;78.22;102691.81;4376513;32;20077;-70
2021/03/02 07:43:36;;;;;;;2.15;2.05;;;;;;;3.73;78.07;102757.22;4374858;32;20101;-69
2021/03/02 07:46:26;;;;;;;2.20;2.10;;;;;;;3.85;78.08;102754.72;4378063;32;20645;-70
2021/03/02 07:48:51;;;;;;;2.20;2.10;;;;;;;3.63;77.60;102693.06;4404378;32;20111;-70
2021/03/02 07:51:26;;;;;;;2.05;1.95;;;;;;;4.15;76.44;102743.72;4379665;32;20084;-70
2021/03/02 07:53:51;;;;;;;2.10;2.00;;;;;;;3.99;76.20;102695.09;4377301;32;20081;-69
2021/03/02 07:56:20;;;;;;;2.20;2.10;;;;;;;4.29;75.54;102730.81;4376815;32;20061;-70
2021/03/02 07:59:16;;;;;;;2.03;1.92;;;;;;;3.56;75.01;102586.56;4383663;32;20474;-70
2021/03/02 08:01:41;;;;;;;2.10;2.00;;;;;;;4.79;74.17;102755.34;4373260;32;20081;-70
2021/03/02 08:04:16;;;;;;;2.60;2.50;;;;;;;4.90;73.70;102747.63;4379307;32;20527;-70
2021/03/02 08:06:48;;;;;;;2.17;2.08;;;;;;;5.00;73.33;102759.81;4395863;32;20076;-71
2021/03/02 08:09:25;;;;;;;2.20;2.10;;;;;;;5.16;72.69;102751.19;4386886;32;21012;-70
2021/03/02 08:11:50;;;;;;;2.50;2.40;;;;;;;5.25;72.14;102752.06;4405030;32;20480;-70
2021/03/02 08:14:16;;;;;;;2.40;2.30;;;;;;;5.33;71.10;102750.38;4377549;32;20651;-70
2021/03/02 08:17:01;;;;;;;2.42;2.10;;;;;;;5.56;70.80;102755.63;4393203;32;20077;-70
2021/03/02 08:19:43;;;;;;;2.35;2.25;;;;;;;5.67;70.76;102755.66;4388130;32;20211;-70
2021/03/02 08:22:23;;;;;;;2.30;2.20;;;;;;;5.86;70.66;102753.94;4383658;32;20111;-70
2021/03/02 08:25:09;;;;;;;2.25;2.15;;;;;;;5.82;70.05;102726.16;4400136;32;20072;-70
2021/03/02 08:27:42;;;;;;;2.20;2.10;;;;;;;6.24;68.70;102761.78;4395617;32;20107;-69
2021/03/02 08:30:26;;;;;;;2.30;2.20;;;;;;;6.40;68.50;102770.47;4395349;32;20087;-69
2021/03/02 08:32:53;;;;;;;2.40;2.30;;;;;;;6.52;68.50;102757.41;4391571;32;20367;-70
2021/03/02 08:35:21;;;;;;;2.45;2.35;;;;;;;6.66;67.98;102767.81;4382832;32;20069;-71
2021/03/02 08:37:55;;;;;;;3.08;2.97;;;;;;;6.74;67.69;102771.25;4375200;32;20402;-70
2021/03/02 08:40:22;;;;;;;2.80;2.70;;;;;;;6.86;67.01;102765.13;4376353;32;20073;-69
2021/03/02 08:43:05;;;;;;;2.55;2.45;;;;;;;7.10;65.22;102756.34;4395177;32;20089;-70
2021/03/02 08:45:33;;;;;;;3.25;3.05;;;;;;;7.21;65.70;102755.41;4392083;32;20470;-70
2021/03/02 08:48:29;;;;;;;2.58;2.47;;;;;;;7.41;63.74;102763.13;4382149;32;20660;-69
2021/03/02 08:51:03;;;;;;;2.40;2.30;;;;;;;7.40;63.67;102746.59;4401314;32;20077;-71
2021/03/02 08:53:38;;;;;;;2.80;2.70;;;;;;;7.63;64.21;102766.50;4375351;32;20069;-70
2021/03/02 08:56:05;;;;;;;2.83;2.62;;;;;;;7.71;62.10;102754.22;4383786;32;20360;-70
2021/03/02 08:58:36;;;;;;;3.00;2.80;;;;;;;7.88;60.64;102761.97;4365273;32;20111;-69
2021/03/02 09:01:28;;;;;;;2.60;2.50;;;;;;;7.95;61.78;102763.62;4367109;32;20366;-71
2021/03/02 09:04:11;;;;;;;3.35;3.15;;;;;;;8.07;60.83;102763.53;4372809;32;21006;-72
2021/03/02 09:06:37;;;;;;;;;;;;;;;8.16;61.57;102765.22;4380853;32;20113;-72
2021/03/02 09:09:04;;;;;;;2.92;2.72;;;;;;;8.28;59.29;102769.44;4384655;32;19972;-72
2021/03/02 09:11:29;;;;;;;2.85;2.75;;;;;;;8.35;59.09;102761.53;4403839;32;20422;-72
2021/03/02 09:13:58;;;;;;;2.60;2.50;;;;;;;8.49;57.90;102757.94;4394116;32;20527;-71
2021/03/02 09:16:33;;;;;;;2.60;2.50;;;;;;;8.58;57.87;102769.19;4376742;32;20080;-72
2021/03/02 09:18:59;;;;;;;2.60;2.50;;;;;;;8.38;58.66;102735.34;4395751;32;20062;-71
2021/03/02 09:21:25;;;;;;;3.33;3.12;;;;;;;8.75;57.74;102781.22;4392594;32;20076;-71
2021/03/02 09:23:51;;;;;;;2.90;2.80;;;;;;;8.69;58.10;102761.22;4369380;32;20139;-70
2021/03/02 09:26:20;;;;;;;2.80;2.70;;;;;;;8.82;57.68;102769.81;4371509;32;20591;-70
2021/03/02 09:28:50;;;;;;;3.40;3.30;;;;;;;8.96;58.14;102770.50;4379538;32;20088;-72
2021/03/02 09:31:15;;;;;;;2.78;2.67;;;;;;;8.98;56.17;102760.88;4371183;32;20483;-71
2021/03/02 09:33:41;;;;;;;2.80;2.70;;;;;;;9.10;56.23;102764.22;4375644;32;20065;-71
2021/03/02 09:36:06;;;;;;;3.05;2.95;;;;;;;9.16;56.38;102765.03;4394945;32;20095;-72
2021/03/02 09:38:31;;;;;;;2.70;2.60;;;;;;;9.28;56.80;102770.97;4382488;32;20496;-70
2021/03/02 09:40:57;;;;;;;2.80;2.70;;;;;;;9.37;55.54;102763.84;4382663;32;20061;-70
2021/03/02 09:43:38;;;;;;;2.80;2.70;;;;;;;9.45;56.24;102765.50;4379713;32;20095;-72
2021/03/02 09:46:04;;;;;;;2.72;2.62;;;;;;;9.55;55.44;102761.87;4376285;32;21935;-72
2021/03/02 09:48:46;;;;;;;3.00;2.90;;;;;;;9.63;54.65;102759.13;4380290;32;20630;-74
2021/03/02 09:51:34;;;;;;;3.10;3.00;;;;;;;9.72;54.49;102772.97;4382396;32;20175;-70
2021/03/02 09:54:15;;;;;;;2.80;2.70;;;;;;;9.95;53.72;102769.97;4380930;32;20069;-72
2021/03/02 09:56:57;;;;;;;3.30;3.20;;;;;;;10.11;53.57;102764.47;4378980;32;20224;-71
2021/03/02 09:59:24;;;;;;;2.75;2.65;;;;;;;9.57;53.24;102660.47;4381689;32;20088;-73
2021/03/02 10:01:49;;;;;;;3.37;3.28;;;;;;;10.26;52.74;102758.94;4375266;32;20138;-71
2021/03/02 10:04:16;;;;;;;2.90;2.80;;;;;;;10.07;52.92;102723.44;4375260;32;20088;-72
2021/03/02 10:06:41;;;;;;;3.75;3.65;;;;;;;10.39;51.58;102757.03;4367818;32;20162;-71
2021/03/02 10:09:20;;;;;;;6.32;3.78;;;;;;;10.49;52.64;102758.56;4375927;32;20604;-71
2021/03/02 10:11:45;;;;;;;3.50;3.30;;;;;;;10.62;52.15;102760.97;4381875;32;20753;-71
2021/03/02 10:14:10;;;;;;;2.80;2.70;;;;;;;10.73;50.65;102757.25;4384571;32;20077;-71
2021/03/02 10:16:38;;;;;;;3.03;2.92;;;;;;;10.85;51.98;102760.53;4407728;32;20154;-71
2021/03/02 10:19:22;;;;;;;2.75;2.65;;;;;;;11.02;50.56;102763.66;4382019;32;20459;-71
2021/03/02 10:21:48;;;;;;;3.00;2.90;;;;;;;11.07;50.66;102756.56;4396243;32;20404;-70
2021/03/02 10:24:23;;;;;;;3.00;2.90;;;;;;;11.21;50.56;102763.28;4412697;32;20294;-72
2021/03/02 10:26:48;;;;;;;3.85;3.65;;;;;;;11.34;49.85;102760.31;4396162;32;20089;-71
2021/03/02 10:29:14;;;;;;;3.15;3.05;;;;;;;11.42;49.19;102761.94;4389010;32;20080;-70
2021/03/02 10:31:39;;;;;;;2.90;2.80;;;;;;;11.55;49.13;102755.50;4390548;32;20469;-69
2021/03/02 10:34:06;;;;;;;3.00;2.90;;;;;;;11.67;48.84;102767.50;4379411;32;20089;-70
2021/03/02 10:36:33;;;;;;;3.05;2.95;;;;;;;11.70;47.87;102760.38;4385049;32;20537;-73
2021/03/02 10:38:58;;;;;;;3.12;3.03;;;;;;;11.66;47.83;102735.06;4385565;32;20100;-71
2021/03/02 10:41:25;;;;;;;3.08;2.97;;;;;;;11.82;47.23;102734.69;4393896;32;20633;-71
2021/03/02 10:43:50;;;;;;;3.45;3.25;;;;;;;11.95;47.85;102747.53;4396795;32;20559;-74
2021/03/02 10:46:20;;;;;;;3.45;3.35;;;;;;;11.73;48.07;102709.47;4400098;32;20077;-71
2021/03/02 10:48:45;;;;;;;3.67;3.47;;;;;;;12.01;47.66;102746.53;4388811;32;20092;-72
2021/03/02 10:51:11;;;;;;;3.45;3.30;;;;;;;11.82;46.52;102687.34;4383740;32;20137;-70
2021/03/02 10:53:36;;;;;;;4.10;3.90;;;;;;;12.20;45.85;102752.16;4382560;32;20089;-71
2021/03/02 10:56:02;;;;;;;3.40;3.30;;;;;;;12.25;46.71;102741.50;4384003;32;20070;-71
2021/03/02 10:58:27;;;;;;;3.20;3.10;;;;;;;12.11;45.51;102707.69;4390468;32;20181;-71
2021/03/02 11:00:55;;;;;;;3.10;3.00;;;;;;;12.40;46.53;102740.25;4379948;32;20078;-71
2021/03/02 11:03:20;;;;;;;3.40;3.30;;;;;;;12.51;46.30;102746.09;4373893;32;20091;-71
2021/03/02 11:05:47;;;;;;;3.40;3.30;;;;;;;12.69;45.63;102747.31;4377771;32;20073;-70
2021/03/02 11:08:12;;;;;;;3.20;3.10;;;;;;;12.67;44.33;102731.59;4370553;32;20381;-71
2021/03/02 11:10:37;;;;;;;3.47;3.37;;;;;;;12.73;45.22;102739.31;4385015;32;20138;-71
2021/03/02 11:13:03;;;;;;;3.30;3.20;;;;;;;12.77;45.97;102735.69;4379966;32;20069;-72
2021/03/02 11:15:29;;;;;;;3.50;3.40;;;;;;;12.97;44.55;102735.09;4379109;32;20075;-71
2021/03/02 11:17:54;;;;;;;3.20;3.10;;;;;;;12.93;44.48;102732.63;4382822;32;20081;-71
2021/03/02 11:20:19;;;;;;;3.35;3.25;;;;;;;13.02;45.34;102727.06;4377265;32;20065;-71
2021/03/02 11:22:45;;;;;;;4.80;4.43;;;;;;;12.84;45.23;102709.16;4367495;32;20086;-71
2021/03/02 11:25:17;;;;;;;3.42;3.33;;;;;;;12.97;44.25;102710.53;4398828;32;20579;-72
2021/03/02 11:27:44;;;;;;;3.40;3.30;;;;;;;13.02;43.79;102711.22;4400186;32;20084;-72
2021/03/02 11:30:10;;;;;;;3.70;3.50;;;;;;;13.09;44.47;102707.50;4395114;32;20084;-72
2021/03/02 11:32:36;;;;;;;3.50;3.40;;;;;;;13.31;44.09;102714.78;4383258;32;20618;-71
2021/03/02 11:35:01;;;;;;;3.40;3.30;;;;;;;13.48;42.76;102703.69;4373383;32;20365;-72